createdAt,value
2023-08-12T00:01:00.448Z,16.9
2023-08-12T00:02:14.741Z,16.9
2023-08-12T00:03:29.034Z,16.9
2023-08-12T00:04:43.326Z,16.8
2023-08-12T00:05:57.618Z,16.8
2023-08-12T00:07:11.911Z,16.8
2023-08-12T00:08:26.203Z,16.8
2023-08-12T00:09:40.496Z,16.8
2023-08-12T00:10:53.804Z,16.8
2023-08-12T00:12:08.097Z,16.8
2023-08-12T00:13:22.389Z,16.8
2023-08-12T00:14:36.678Z,16.8
2023-08-12T00:15:50.974Z,16.8
2023-08-12T00:17:05.267Z,16.8
2023-08-12T00:18:19.559Z,16.8
2023-08-12T00:19:33.852Z,16.7
2023-08-12T00:20:48.144Z,16.8
2023-08-12T00:22:02.436Z,16.7
2023-08-12T00:23:16.729Z,16.7
2023-08-12T00:24:31.022Z,16.7
2023-08-12T00:25:45.314Z,16.7
2023-08-12T00:26:58.623Z,16.7
2023-08-12T00:28:12.915Z,16.6
2023-08-12T00:29:27.208Z,16.6
2023-08-12T00:30:41.501Z,16.6
2023-08-12T00:31:55.793Z,16.5
2023-08-12T00:33:10.086Z,16.5
2023-08-12T00:34:24.378Z,16.5
2023-08-12T00:35:38.671Z,16.5
2023-08-12T00:36:52.963Z,16.4
2023-08-12T00:38:07.256Z,16.4
2023-08-12T00:39:21.548Z,16.4
2023-08-12T00:40:35.841Z,16.3
2023-08-12T00:41:50.133Z,16.3
2023-08-12T00:43:03.442Z,16.3
2023-08-12T00:44:17.734Z,16.3
2023-08-12T00:45:32.026Z,16.4
2023-08-12T00:46:46.319Z,16.3
2023-08-12T00:48:00.612Z,16.4
2023-08-12T00:49:14.904Z,16.3
2023-08-12T00:50:29.196Z,16.3
2023-08-12T00:51:43.489Z,16.3
2023-08-12T00:52:57.782Z,16.4
2023-08-12T00:54:12.075Z,16.4
2023-08-12T00:55:26.367Z,16.4
2023-08-12T00:56:40.660Z,16.3
2023-08-12T00:57:54.952Z,16.3
2023-08-12T00:59:08.261Z,16.3
2023-08-12T01:00:22.553Z,16.3
2023-08-12T01:01:36.846Z,16.3
2023-08-12T01:02:51.138Z,16.3
2023-08-12T01:04:05.431Z,16.3
2023-08-12T01:05:19.723Z,16.3
2023-08-12T01:06:34.016Z,16.3
2023-08-12T01:07:48.309Z,16.3
2023-08-12T01:09:02.601Z,16.3
2023-08-12T01:10:16.894Z,16.3
2023-08-12T01:11:31.186Z,16.2
2023-08-12T01:12:45.479Z,16.2
2023-08-12T01:13:59.771Z,16.2
2023-08-12T01:15:13.080Z,16.2
2023-08-12T01:16:27.372Z,16.2
2023-08-12T01:17:41.665Z,16.2
2023-08-12T01:18:55.957Z,16.2
2023-08-12T01:20:10.250Z,16.2
2023-08-12T01:21:24.542Z,16.2
2023-08-12T01:22:38.835Z,16.2
2023-08-12T01:23:53.127Z,16.2
2023-08-12T01:25:07.420Z,16.3
2023-08-12T01:26:21.712Z,16.3
2023-08-12T01:27:36.005Z,16.3
2023-08-12T01:28:50.297Z,16.3
2023-08-12T01:30:04.590Z,16.4
2023-08-12T01:31:17.899Z,16.4
2023-08-12T01:32:32.191Z,16.4
2023-08-12T01:33:46.484Z,16.4
2023-08-12T01:35:00.776Z,16.4
2023-08-12T01:36:15.068Z,16.4
2023-08-12T01:37:29.361Z,16.4
2023-08-12T01:38:43.653Z,16.4
2023-08-12T01:39:57.947Z,16.4
2023-08-12T01:41:12.241Z,16.4
2023-08-12T01:42:26.533Z,16.4
2023-08-12T01:43:40.825Z,16.4
2023-08-12T01:44:55.118Z,16.4
2023-08-12T01:46:09.410Z,16.4
2023-08-12T01:47:22.719Z,16.4
2023-08-12T01:48:37.012Z,16.4
2023-08-12T01:49:51.304Z,16.4
2023-08-12T01:51:05.597Z,16.4
2023-08-12T01:52:19.889Z,16.4
2023-08-12T01:53:34.182Z,16.4
2023-08-12T01:54:48.474Z,16.4
2023-08-12T01:56:02.767Z,16.3
2023-08-12T01:57:17.059Z,16.3
2023-08-12T01:58:31.352Z,16.3
2023-08-12T01:59:45.644Z,16.3
2023-08-12T02:00:59.937Z,16.4
2023-08-12T02:02:14.230Z,16.3
2023-08-12T02:03:27.538Z,16.4
2023-08-12T02:04:41.832Z,16.3
2023-08-12T02:05:56.124Z,16.3
2023-08-12T02:07:10.417Z,16.4
2023-08-12T02:08:24.709Z,16.3
2023-08-12T02:09:39.002Z,16.4
2023-08-12T02:10:53.294Z,16.4
2023-08-12T02:12:07.587Z,16.4
2023-08-12T02:13:21.879Z,16.4
2023-08-12T02:14:36.172Z,16.4
2023-08-12T02:15:50.464Z,16.4
2023-08-12T02:17:04.757Z,16.4
2023-08-12T02:18:19.049Z,16.4
2023-08-12T02:19:32.358Z,16.4
2023-08-12T02:20:46.650Z,16.4
2023-08-12T02:22:00.943Z,16.4
2023-08-12T02:23:15.235Z,16.4
2023-08-12T02:24:29.528Z,16.3
2023-08-12T02:25:43.820Z,16.4
2023-08-12T02:26:58.113Z,16.4
2023-08-12T02:28:12.406Z,16.3
2023-08-12T02:29:26.699Z,16.4
2023-08-12T02:30:40.991Z,16.4
2023-08-12T02:31:55.283Z,16.4
2023-08-12T02:33:09.576Z,16.4
2023-08-12T02:34:23.869Z,16.4
2023-08-12T02:35:37.177Z,16.4
2023-08-12T02:36:51.470Z,16.4
2023-08-12T02:38:05.762Z,16.4
2023-08-12T02:39:20.055Z,16.4
2023-08-12T02:40:34.347Z,16.4
2023-08-12T02:41:48.640Z,16.4
2023-08-12T02:43:01.953Z,16.3
2023-08-12T02:44:16.246Z,16.4
2023-08-12T02:45:30.539Z,16.4
2023-08-12T02:46:44.831Z,16.3
2023-08-12T02:47:59.123Z,16.3
2023-08-12T02:49:13.416Z,16.3
2023-08-12T02:50:27.708Z,16.3
2023-08-12T02:51:42.001Z,16.3
2023-08-12T02:52:56.293Z,16.3
2023-08-12T02:54:10.588Z,16.3
2023-08-12T02:55:24.879Z,16.3
2023-08-12T02:56:39.171Z,16.3
2023-08-12T02:57:53.464Z,16.4
2023-08-12T02:59:06.772Z,16.4
2023-08-12T03:00:21.065Z,16.4
2023-08-12T03:01:35.357Z,16.4
2023-08-12T03:02:49.649Z,16.4
2023-08-12T03:04:03.942Z,16.4
2023-08-12T03:05:18.234Z,16.4
2023-08-12T03:06:32.527Z,16.4
2023-08-12T03:07:46.820Z,16.4
2023-08-12T03:09:01.112Z,16.4
2023-08-12T03:10:15.405Z,16.5
2023-08-12T03:11:29.697Z,16.4
2023-08-12T03:12:43.936Z,16.4
2023-08-12T03:13:58.228Z,16.4
2023-08-12T03:15:11.537Z,16.4
2023-08-12T03:16:25.787Z,16.4
2023-08-12T03:17:40.025Z,16.4
2023-08-12T03:18:54.318Z,16.4
2023-08-12T03:20:08.611Z,16.4
2023-08-12T03:21:22.861Z,16.4
2023-08-12T03:22:37.099Z,16.4
2023-08-12T03:23:51.393Z,16.4
2023-08-12T03:25:05.643Z,16.4
2023-08-12T03:26:19.881Z,16.4
2023-08-12T03:27:34.120Z,16.4
2023-08-12T03:28:48.358Z,16.3
2023-08-12T03:30:02.597Z,16.4
2023-08-12T03:31:15.852Z,16.3
2023-08-12T03:32:30.090Z,16.3
2023-08-12T03:33:44.329Z,16.3
2023-08-12T03:34:58.567Z,16.4
2023-08-12T03:36:12.806Z,16.3
2023-08-12T03:37:27.044Z,16.4
2023-08-12T03:38:41.283Z,16.4
2023-08-12T03:39:55.521Z,16.4
2023-08-12T03:41:09.760Z,16.4
2023-08-12T03:42:23.998Z,16.4
2023-08-12T03:43:38.237Z,16.3
2023-08-12T03:44:52.475Z,16.3
2023-08-12T03:46:06.714Z,16.3
2023-08-12T03:47:19.968Z,16.4
2023-08-12T03:48:34.207Z,16.4
2023-08-12T03:49:48.446Z,16.4
2023-08-12T03:51:02.684Z,16.4
2023-08-12T03:52:16.923Z,16.4
2023-08-12T03:53:31.161Z,16.4
2023-08-12T03:54:45.400Z,16.4
2023-08-12T03:55:59.638Z,16.4
2023-08-12T03:57:13.878Z,16.4
2023-08-12T03:58:28.116Z,16.4
2023-08-12T03:59:42.355Z,16.4
2023-08-12T04:00:56.594Z,16.4
2023-08-12T04:02:10.832Z,16.4
2023-08-12T04:03:24.087Z,16.5
2023-08-12T04:04:38.325Z,16.5
2023-08-12T04:05:52.564Z,16.4
2023-08-12T04:07:06.802Z,16.5
2023-08-12T04:08:21.041Z,16.5
2023-08-12T04:09:35.279Z,16.5
2023-08-12T04:10:49.518Z,16.5
2023-08-12T04:12:03.757Z,16.5
2023-08-12T04:13:17.995Z,16.5
2023-08-12T04:14:32.234Z,16.4
2023-08-12T04:15:46.473Z,16.5
2023-08-12T04:17:00.711Z,16.5
2023-08-12T04:18:14.949Z,16.5
2023-08-12T04:19:28.204Z,16.5
2023-08-12T04:20:42.443Z,16.5
2023-08-12T04:21:56.682Z,16.5
2023-08-12T04:23:10.920Z,16.6
2023-08-12T04:24:25.159Z,16.6
2023-08-12T04:25:39.397Z,16.6
2023-08-12T04:26:53.636Z,16.6
2023-08-12T04:28:07.874Z,16.6
2023-08-12T04:29:22.112Z,16.7
2023-08-12T04:30:36.351Z,16.7
2023-08-12T04:31:50.590Z,16.7
2023-08-12T04:33:04.828Z,16.7
2023-08-12T04:34:19.067Z,16.7
2023-08-12T04:35:32.321Z,16.8
2023-08-12T04:36:46.560Z,16.8
2023-08-12T04:38:00.798Z,16.9
2023-08-12T04:39:15.037Z,16.9
2023-08-12T04:40:29.275Z,16.9
2023-08-12T04:41:43.514Z,16.9
2023-08-12T04:42:57.753Z,16.9
2023-08-12T04:44:11.992Z,17
2023-08-12T04:45:26.231Z,17
2023-08-12T04:46:40.469Z,17.1
2023-08-12T04:47:54.708Z,17.1
2023-08-12T04:49:08.946Z,17.1
2023-08-12T04:50:23.185Z,17.1
2023-08-12T04:51:36.439Z,17.1
2023-08-12T04:52:50.678Z,17.2
2023-08-12T04:54:04.917Z,17.2
2023-08-12T04:55:19.155Z,17.2
2023-08-12T04:56:33.394Z,17.3
2023-08-12T04:57:47.632Z,17.3
2023-08-12T04:59:01.870Z,17.4
2023-08-12T05:00:16.105Z,17.4
2023-08-12T05:01:30.347Z,17.4
2023-08-12T05:02:44.586Z,17.5
2023-08-12T05:03:58.825Z,17.5
2023-08-12T05:05:13.063Z,17.5
2023-08-12T05:06:27.302Z,17.6
2023-08-12T05:07:40.556Z,17.6
2023-08-12T05:08:54.795Z,17.6
2023-08-12T05:10:09.033Z,17.7
2023-08-12T05:11:23.272Z,17.7
2023-08-12T05:12:37.510Z,17.8
2023-08-12T05:13:51.749Z,17.8
2023-08-12T05:15:05.987Z,17.9
2023-08-12T05:16:20.226Z,17.9
2023-08-12T05:17:34.465Z,17.9
2023-08-12T05:18:48.703Z,18
2023-08-12T05:20:02.943Z,18
2023-08-12T05:21:17.181Z,18.1
2023-08-12T05:22:31.419Z,18.1
2023-08-12T05:23:44.674Z,18.1
2023-08-12T05:24:58.913Z,18.1
2023-08-12T05:26:13.151Z,18.2
2023-08-12T05:27:27.390Z,18.2
2023-08-12T05:28:41.628Z,18.2
2023-08-12T05:29:55.867Z,18.2
2023-08-12T05:31:10.105Z,18.3
2023-08-12T05:32:24.344Z,18.3
2023-08-12T05:33:38.582Z,18.3
2023-08-12T05:34:52.821Z,18.3
2023-08-12T05:36:07.060Z,18.3
2023-08-12T05:37:21.298Z,18.4
2023-08-12T05:38:35.537Z,18.4
2023-08-12T05:39:48.791Z,18.4
2023-08-12T05:41:03.030Z,18.4
2023-08-12T05:42:17.268Z,18.5
2023-08-12T05:43:31.507Z,18.5
2023-08-12T05:44:45.745Z,18.5
2023-08-12T05:45:59.984Z,18.5
2023-08-12T05:47:14.223Z,18.5
2023-08-12T05:48:28.461Z,18.5
2023-08-12T05:49:42.700Z,18.5
2023-08-12T05:50:56.938Z,18.5
2023-08-12T05:52:11.177Z,18.6
2023-08-12T05:53:25.415Z,18.6
2023-08-12T05:54:39.654Z,18.6
2023-08-12T05:55:52.908Z,18.6
2023-08-12T05:57:07.147Z,18.6
2023-08-12T05:58:21.386Z,18.6
2023-08-12T05:59:35.624Z,18.6
2023-08-12T06:00:49.863Z,18.7
2023-08-12T06:02:04.101Z,18.7
2023-08-12T06:03:18.340Z,18.8
2023-08-12T06:04:32.578Z,18.8
2023-08-12T06:05:46.817Z,18.9
2023-08-12T06:07:01.055Z,19
2023-08-12T06:08:15.294Z,19.1
2023-08-12T06:09:29.533Z,19.3
2023-08-12T06:10:43.772Z,19.5
2023-08-12T06:11:57.027Z,19.6
2023-08-12T06:13:11.265Z,19.7
2023-08-12T06:15:39.742Z,20.1
2023-08-12T06:16:53.981Z,20.3
2023-08-12T06:18:08.219Z,20.4
2023-08-12T06:19:22.458Z,20.6
2023-08-12T06:20:36.697Z,20.7
2023-08-12T06:21:50.935Z,21
2023-08-12T06:23:05.174Z,21.2
2023-08-12T06:24:19.412Z,21.4
2023-08-12T06:25:33.651Z,21.6
2023-08-12T06:26:47.889Z,21.7
2023-08-12T06:28:01.144Z,21.8
2023-08-12T06:29:15.382Z,22
2023-08-12T06:30:29.621Z,22
2023-08-12T06:31:43.860Z,22.1
2023-08-12T06:32:58.098Z,22.3
2023-08-12T06:34:12.336Z,22.5
2023-08-12T06:35:26.575Z,22.6
2023-08-12T06:36:40.813Z,22.6
2023-08-12T06:37:55.052Z,22.7
2023-08-12T06:39:09.290Z,22.7
2023-08-12T06:40:23.529Z,22.8
2023-08-12T06:41:37.768Z,22.9
2023-08-12T06:42:52.006Z,23.1
2023-08-12T06:44:05.261Z,23.2
2023-08-12T06:45:19.500Z,23.2
2023-08-12T06:46:33.739Z,23.3
2023-08-12T06:47:47.978Z,23.3
2023-08-12T06:49:02.216Z,23.3
2023-08-12T06:50:16.455Z,23.3
2023-08-12T06:51:29.715Z,23.3
2023-08-12T06:52:43.954Z,23.3
2023-08-12T06:53:58.193Z,23.3
2023-08-12T06:55:12.431Z,23.3
2023-08-12T06:56:26.670Z,23.2
2023-08-12T06:57:40.908Z,23.2
2023-08-12T06:58:55.147Z,23.2
2023-08-12T07:00:09.385Z,23.2
2023-08-12T07:01:23.624Z,23.3
2023-08-12T07:02:37.863Z,23.2
2023-08-12T07:03:52.101Z,23.3
2023-08-12T07:05:06.340Z,23.2
2023-08-12T07:06:20.578Z,23.3
2023-08-12T07:07:33.833Z,23.4
2023-08-12T07:08:48.072Z,23.4
2023-08-12T07:10:02.311Z,23.5
2023-08-12T07:11:16.550Z,23.5
2023-08-12T07:12:30.788Z,23.6
2023-08-12T07:13:45.027Z,23.6
2023-08-12T07:14:59.266Z,23.6
2023-08-12T07:16:13.504Z,23.6
2023-08-12T07:17:27.743Z,23.7
2023-08-12T07:18:41.981Z,23.7
2023-08-12T07:19:56.220Z,23.7
2023-08-12T07:21:10.458Z,23.7
2023-08-12T07:22:24.697Z,23.7
2023-08-12T07:23:37.951Z,23.6
2023-08-12T07:24:52.190Z,23.6
2023-08-12T07:26:06.428Z,23.5
2023-08-12T07:27:20.667Z,23.6
2023-08-12T07:28:34.905Z,23.6
2023-08-12T07:29:49.144Z,23.6
2023-08-12T07:31:03.382Z,23.6
2023-08-12T07:32:17.621Z,23.6
2023-08-12T07:33:31.859Z,23.5
2023-08-12T07:34:46.098Z,23.6
2023-08-12T07:36:00.337Z,23.6
2023-08-12T07:37:14.575Z,23.6
2023-08-12T07:38:28.814Z,23.6
2023-08-12T07:39:42.068Z,23.5
2023-08-12T07:40:56.307Z,23.5
2023-08-12T07:42:10.545Z,23.5
2023-08-12T07:43:24.783Z,23.6
2023-08-12T07:44:39.022Z,23.6
2023-08-12T07:45:53.261Z,23.7
2023-08-12T07:47:07.499Z,23.7
2023-08-12T07:48:21.738Z,23.7
2023-08-12T07:49:35.976Z,23.7
2023-08-12T07:50:50.215Z,23.8
2023-08-12T07:52:04.453Z,23.8
2023-08-12T07:53:18.692Z,23.8
2023-08-12T07:54:32.930Z,23.8
2023-08-12T07:55:46.185Z,23.8
2023-08-12T07:57:00.424Z,23.8
2023-08-12T07:58:14.662Z,23.9
2023-08-12T07:59:28.901Z,23.9
2023-08-12T08:00:43.139Z,24
2023-08-12T08:01:57.378Z,24
2023-08-12T08:03:11.616Z,24.1
2023-08-12T08:04:25.855Z,24.2
2023-08-12T08:05:40.093Z,24.3
2023-08-12T08:06:54.332Z,24.4
2023-08-12T08:08:08.571Z,24.5
2023-08-12T08:09:22.809Z,24.6
2023-08-12T08:10:37.048Z,24.7
2023-08-12T08:11:50.302Z,24.8
2023-08-12T08:13:04.541Z,24.9
2023-08-12T08:14:18.779Z,25
2023-08-12T08:15:33.018Z,25.1
2023-08-12T08:16:47.257Z,25.1
2023-08-12T08:18:01.496Z,25.1
2023-08-12T08:19:15.734Z,25.1
2023-08-12T08:20:29.973Z,25.1
2023-08-12T08:21:44.212Z,25.1
2023-08-12T08:22:58.450Z,25.1
2023-08-12T08:24:12.689Z,25.1
2023-08-12T08:25:26.927Z,25.1
2023-08-12T08:26:41.166Z,25
2023-08-12T08:27:54.421Z,25
2023-08-12T08:29:08.660Z,25
2023-08-12T08:30:22.898Z,25
2023-08-12T08:31:37.137Z,25
2023-08-12T08:32:51.376Z,24.9
2023-08-12T08:34:05.614Z,25
2023-08-12T08:35:19.853Z,25
2023-08-12T08:36:34.092Z,25
2023-08-12T08:37:48.330Z,25
2023-08-12T08:39:02.569Z,24.9
2023-08-12T08:40:16.808Z,24.9
2023-08-12T08:41:31.046Z,24.9
2023-08-12T08:42:45.285Z,24.8
2023-08-12T08:43:58.540Z,24.8
2023-08-12T08:45:12.778Z,24.8
2023-08-12T08:46:27.017Z,24.8
2023-08-12T08:47:41.256Z,24.7
2023-08-12T08:48:55.494Z,24.7
2023-08-12T08:50:09.733Z,24.7
2023-08-12T08:51:23.972Z,24.7
2023-08-12T08:52:38.211Z,24.6
2023-08-12T08:53:52.449Z,24.5
2023-08-12T08:55:06.688Z,24.5
2023-08-12T08:56:20.926Z,24.4
2023-08-12T08:57:35.165Z,24.4
2023-08-12T08:58:49.404Z,24.3
2023-08-12T09:00:02.658Z,24.2
2023-08-12T09:01:16.897Z,24.2
2023-08-12T09:02:31.136Z,24
2023-08-12T09:03:45.375Z,24
2023-08-12T09:04:59.613Z,24
2023-08-12T09:06:13.852Z,23.9
2023-08-12T09:07:28.091Z,23.9
2023-08-12T09:08:42.329Z,23.8
2023-08-12T09:09:56.568Z,23.8
2023-08-12T09:11:10.807Z,23.7
2023-08-12T09:12:25.045Z,23.6
2023-08-12T09:13:39.284Z,23.6
2023-08-12T09:14:53.523Z,23.6
2023-08-12T09:16:06.777Z,23.7
2023-08-12T09:17:21.016Z,23.7
2023-08-12T09:18:35.255Z,23.8
2023-08-12T09:19:49.493Z,23.8
2023-08-12T09:21:03.732Z,23.8
2023-08-12T09:22:17.971Z,23.9
2023-08-12T09:23:32.210Z,24
2023-08-12T09:24:46.448Z,24.1
2023-08-12T09:26:00.687Z,24.2
2023-08-12T09:27:14.925Z,24.4
2023-08-12T09:28:29.164Z,24.5
2023-08-12T09:29:43.403Z,24.6
2023-08-12T09:30:57.641Z,24.8
2023-08-12T09:32:10.896Z,25
2023-08-12T09:33:25.135Z,25.1
2023-08-12T09:34:39.374Z,25.3
2023-08-12T09:35:53.612Z,25.5
2023-08-12T09:37:07.851Z,25.6
2023-08-12T09:38:22.090Z,25.8
2023-08-12T09:39:36.328Z,25.9
2023-08-12T09:40:50.567Z,26
2023-08-12T09:42:04.806Z,26.1
2023-08-12T09:43:19.045Z,26.2
2023-08-12T09:44:33.283Z,26.2
2023-08-12T09:45:47.522Z,26.3
2023-08-12T09:47:01.760Z,26.3
2023-08-12T09:48:15.015Z,26.3
2023-08-12T09:49:29.254Z,26.4
2023-08-12T09:50:43.492Z,26.4
2023-08-12T09:51:57.731Z,26.4
2023-08-12T09:53:11.969Z,26.3
2023-08-12T09:54:26.208Z,26.3
2023-08-12T09:55:40.447Z,26.3
2023-08-12T09:56:54.685Z,26.3
2023-08-12T09:58:08.925Z,26.3
2023-08-12T09:59:23.163Z,26.3
2023-08-12T10:00:37.402Z,26.4
2023-08-12T10:01:51.640Z,26.4
2023-08-12T10:03:05.879Z,26.5
2023-08-12T10:04:19.134Z,26.5
2023-08-12T10:05:33.373Z,26.6
2023-08-12T10:06:47.611Z,26.7
2023-08-12T10:08:01.850Z,26.7
2023-08-12T10:09:16.089Z,26.7
2023-08-12T10:10:30.327Z,26.8
2023-08-12T10:11:44.566Z,26.8
2023-08-12T10:12:58.804Z,26.8
2023-08-12T10:14:13.043Z,26.9
2023-08-12T10:15:27.282Z,26.9
2023-08-12T10:16:41.521Z,27
2023-08-12T10:17:55.759Z,27.1
2023-08-12T10:19:09.998Z,27.1
2023-08-12T10:20:23.253Z,27.1
2023-08-12T10:21:37.492Z,27.1
2023-08-12T10:22:51.730Z,27.1
2023-08-12T10:24:05.969Z,27.1
2023-08-12T10:25:20.208Z,27
2023-08-12T10:26:34.447Z,27
2023-08-12T10:27:48.685Z,27
2023-08-12T10:29:02.924Z,26.9
2023-08-12T10:30:17.163Z,26.9
2023-08-12T10:31:31.401Z,26.8
2023-08-12T10:32:45.640Z,26.8
2023-08-12T10:33:59.879Z,26.7
2023-08-12T10:35:14.118Z,26.7
2023-08-12T10:36:27.373Z,26.7
2023-08-12T10:37:41.612Z,26.7
2023-08-12T10:38:55.851Z,26.7
2023-08-12T10:40:10.089Z,26.6
2023-08-12T10:41:24.328Z,26.6
2023-08-12T10:42:38.567Z,26.6
2023-08-12T10:43:52.806Z,26.6
2023-08-12T10:45:07.044Z,26.5
2023-08-12T10:46:21.283Z,26.5
2023-08-12T10:47:35.522Z,26.5
2023-08-12T10:48:49.761Z,26.5
2023-08-12T10:50:04.000Z,26.4
2023-08-12T10:51:18.238Z,26.4
2023-08-12T10:52:31.493Z,26.3
2023-08-12T10:53:45.732Z,26.3
2023-08-12T10:54:59.970Z,26.2
2023-08-12T10:56:14.209Z,26.2
2023-08-12T10:57:28.448Z,26.2
2023-08-12T10:58:42.687Z,26.2
2023-08-12T10:59:55.947Z,26.2
2023-08-12T11:01:10.185Z,26.2
2023-08-12T11:02:24.424Z,26.3
2023-08-12T11:03:38.663Z,26.3
2023-08-12T11:04:52.901Z,26.3
2023-08-12T11:06:07.140Z,26.2
2023-08-12T11:07:21.379Z,26.2
2023-08-12T11:08:35.617Z,26.1
2023-08-12T11:09:49.856Z,26.1
2023-08-12T11:11:04.095Z,26
2023-08-12T11:12:18.334Z,25.8
2023-08-12T11:13:32.572Z,25.6
2023-08-12T11:14:46.811Z,25.5
2023-08-12T11:16:00.066Z,25.3
2023-08-12T11:17:14.304Z,25.2
2023-08-12T11:18:28.543Z,25.2
2023-08-12T11:19:42.781Z,25.1
2023-08-12T11:20:57.020Z,25
2023-08-12T11:22:11.259Z,24.9
2023-08-12T11:23:25.497Z,24.8
2023-08-12T11:24:39.736Z,24.8
2023-08-12T11:25:53.975Z,24.7
2023-08-12T11:27:08.213Z,24.7
2023-08-12T11:28:22.452Z,24.7
2023-08-12T11:29:36.690Z,24.6
2023-08-12T11:30:50.929Z,24.5
2023-08-12T11:32:04.184Z,24.6
2023-08-12T11:33:18.423Z,24.6
2023-08-12T11:34:32.661Z,24.6
2023-08-12T11:35:46.900Z,24.6
2023-08-12T11:37:01.138Z,24.6
2023-08-12T11:38:15.377Z,24.6
2023-08-12T11:39:29.615Z,24.6
2023-08-12T11:40:43.854Z,24.7
2023-08-12T11:41:58.093Z,24.8
2023-08-12T11:43:12.331Z,24.8
2023-08-12T11:44:26.570Z,24.8
2023-08-12T11:45:39.830Z,24.8
2023-08-12T11:46:53.090Z,24.8
2023-08-12T11:48:06.345Z,24.9
2023-08-12T11:49:20.583Z,25
2023-08-12T11:50:34.822Z,25
2023-08-12T11:51:49.060Z,25
2023-08-12T11:53:03.299Z,25.1
2023-08-12T11:54:17.538Z,25.1
2023-08-12T11:55:31.777Z,25.2
2023-08-12T11:56:46.015Z,25.2
2023-08-12T11:58:00.254Z,25.3
2023-08-12T11:59:14.492Z,25.3
2023-08-12T12:00:28.731Z,25.4
2023-08-12T12:01:42.970Z,25.5
2023-08-12T12:02:57.193Z,25.6
2023-08-12T12:04:10.463Z,25.6
2023-08-12T12:05:24.702Z,25.6
2023-08-12T12:06:38.941Z,25.7
2023-08-12T12:07:53.179Z,25.8
2023-08-12T12:09:07.418Z,25.9
2023-08-12T12:10:21.657Z,26
2023-08-12T12:11:35.895Z,26
2023-08-12T12:12:50.134Z,26.1
2023-08-12T12:14:04.373Z,26.2
2023-08-12T12:15:18.611Z,26.3
2023-08-12T12:16:32.850Z,26.4
2023-08-12T12:17:47.089Z,26.4
2023-08-12T12:19:01.328Z,26.5
2023-08-12T12:20:14.583Z,26.7
2023-08-12T12:21:28.821Z,26.8
2023-08-12T12:22:43.060Z,26.9
2023-08-12T12:23:57.299Z,26.8
2023-08-12T12:25:11.538Z,26.9
2023-08-12T12:26:25.777Z,27
2023-08-12T12:27:40.015Z,27.2
2023-08-12T12:28:54.254Z,27.3
2023-08-12T12:30:08.493Z,27.4
2023-08-12T12:31:22.732Z,27.4
2023-08-12T12:32:36.970Z,27.5
2023-08-12T12:33:51.209Z,27.6
2023-08-12T12:35:05.448Z,27.7
2023-08-12T12:36:18.703Z,27.8
2023-08-12T12:37:31.963Z,27.9
2023-08-12T12:38:45.218Z,27.9
2023-08-12T12:39:59.458Z,28.1
2023-08-12T12:41:13.697Z,28.2
2023-08-12T12:42:27.936Z,28.3
2023-08-12T12:43:42.174Z,28.4
2023-08-12T12:44:56.413Z,28.5
2023-08-12T12:46:10.652Z,28.5
2023-08-12T12:47:24.891Z,28.6
2023-08-12T12:48:39.130Z,28.6
2023-08-12T12:49:53.369Z,28.6
2023-08-12T12:51:07.608Z,28.6
2023-08-12T12:52:21.847Z,28.7
2023-08-12T12:53:36.086Z,28.8
2023-08-12T12:54:49.341Z,28.9
2023-08-12T12:56:03.580Z,29
2023-08-12T12:57:17.818Z,29.1
2023-08-12T12:58:32.057Z,29.3
2023-08-12T12:59:46.296Z,29.3
2023-08-12T13:01:00.535Z,29.4
2023-08-12T13:02:13.796Z,29.6
2023-08-12T13:03:27.056Z,29.8
2023-08-12T13:04:40.311Z,29.9
2023-08-12T13:05:54.550Z,29.9
2023-08-12T13:07:08.789Z,30
2023-08-12T13:08:23.027Z,30
2023-08-12T13:09:37.266Z,30.1
2023-08-12T13:10:51.505Z,30.2
2023-08-12T13:12:05.743Z,30.2
2023-08-12T13:13:19.982Z,30.1
2023-08-12T13:14:34.221Z,30.1
2023-08-12T13:15:48.460Z,30.1
2023-08-12T13:17:02.698Z,30.1
2023-08-12T13:18:16.937Z,30.1
2023-08-12T13:19:31.176Z,30.1
2023-08-12T13:20:44.431Z,30.1
2023-08-12T13:21:58.669Z,30.1
2023-08-12T13:23:12.908Z,30.1
2023-08-12T13:24:27.146Z,30.1
2023-08-12T13:25:41.385Z,30.2
2023-08-12T13:26:55.624Z,30.2
2023-08-12T13:28:09.863Z,30.1
2023-08-12T13:29:23.123Z,30.1
2023-08-12T13:30:37.362Z,30.1
2023-08-12T13:31:50.616Z,30.1
2023-08-12T13:33:04.855Z,30
2023-08-12T13:34:19.094Z,29.9
2023-08-12T13:35:33.333Z,29.7
2023-08-12T13:36:47.571Z,29.6
2023-08-12T13:38:01.810Z,29.6
2023-08-12T13:39:16.049Z,29.7
2023-08-12T13:40:30.287Z,29.7
2023-08-12T13:41:44.526Z,29.9
2023-08-12T13:42:58.765Z,30
2023-08-12T13:44:13.003Z,30.1
2023-08-12T13:45:27.242Z,30.1
2023-08-12T13:46:41.481Z,30.1
2023-08-12T13:47:54.736Z,30.1
2023-08-12T13:49:08.974Z,30.1
2023-08-12T13:50:23.213Z,30.1
2023-08-12T13:51:37.453Z,30
2023-08-12T13:52:51.692Z,29.9
2023-08-12T13:54:05.930Z,29.9
2023-08-12T13:55:20.169Z,29.8
2023-08-12T13:56:34.408Z,29.8
2023-08-12T13:57:48.647Z,29.8
2023-08-12T13:59:02.885Z,29.8
2023-08-12T14:00:17.125Z,29.8
2023-08-12T14:01:31.363Z,29.8
2023-08-12T14:02:45.602Z,29.8
2023-08-12T14:03:58.857Z,29.9
2023-08-12T14:05:13.096Z,29.9
2023-08-12T14:06:27.335Z,29.9
2023-08-12T14:07:41.573Z,29.9
2023-08-12T14:08:55.812Z,30
2023-08-12T14:10:10.051Z,30.1
2023-08-12T14:11:24.290Z,30.2
2023-08-12T14:12:38.529Z,30.2
2023-08-12T14:13:52.768Z,30.1
2023-08-12T14:15:07.006Z,30.1
2023-08-12T14:16:21.245Z,30.1
2023-08-12T14:17:35.484Z,30.2
2023-08-12T14:18:49.723Z,30.2
2023-08-12T14:20:02.978Z,30.2
2023-08-12T14:21:17.218Z,30.2
2023-08-12T14:22:31.457Z,30.2
2023-08-12T14:23:45.696Z,30.1
2023-08-12T14:24:59.934Z,30.1
2023-08-12T14:26:14.173Z,30.1
2023-08-12T14:27:28.412Z,30.1
2023-08-12T14:28:42.651Z,30.1
2023-08-12T14:29:56.889Z,30.2
2023-08-12T14:31:11.128Z,30.1
2023-08-12T14:32:25.367Z,30.1
2023-08-12T14:33:39.606Z,30.1
2023-08-12T14:34:53.845Z,30.1
2023-08-12T14:36:08.083Z,30
2023-08-12T14:37:22.322Z,30
2023-08-12T14:38:35.577Z,30
2023-08-12T14:39:49.816Z,30
2023-08-12T14:41:04.054Z,30.1
2023-08-12T14:42:18.293Z,30.1
2023-08-12T14:43:32.532Z,30.2
2023-08-12T14:44:46.771Z,30.3
2023-08-12T14:46:01.010Z,30.4
2023-08-12T14:47:15.248Z,30.5
2023-08-12T14:48:29.487Z,30.5
2023-08-12T14:49:43.726Z,30.6
2023-08-12T14:50:57.965Z,30.6
2023-08-12T14:52:12.204Z,30.6
2023-08-12T14:53:26.443Z,30.6
2023-08-12T14:54:40.682Z,30.7
2023-08-12T14:55:54.921Z,30.7
2023-08-12T14:57:09.159Z,30.6
2023-08-12T14:58:23.398Z,30.6
2023-08-12T14:59:37.637Z,30.5
2023-08-12T15:00:50.897Z,30.4
2023-08-12T15:02:05.136Z,30.3
2023-08-12T15:03:18.391Z,30.3
2023-08-12T15:04:32.630Z,30.3
2023-08-12T15:05:46.869Z,30.3
2023-08-12T15:07:01.108Z,30.3
2023-08-12T15:08:15.347Z,30.2
2023-08-12T15:09:29.585Z,30.1
2023-08-12T15:10:43.824Z,30
2023-08-12T15:11:58.063Z,30
2023-08-12T15:13:12.301Z,29.9
2023-08-12T15:14:25.562Z,29.9
2023-08-12T15:15:39.801Z,29.9
2023-08-12T15:16:54.040Z,29.8
2023-08-12T15:18:08.279Z,29.8
2023-08-12T15:19:22.518Z,29.7
2023-08-12T15:20:36.757Z,29.7
2023-08-12T15:21:50.995Z,29.6
2023-08-12T15:23:05.234Z,29.5
2023-08-12T15:24:19.473Z,29.4
2023-08-12T15:25:33.711Z,29.4
2023-08-12T15:26:47.950Z,29.3
2023-08-12T15:28:02.189Z,29.3
2023-08-12T15:29:16.427Z,29.2
2023-08-12T15:31:44.905Z,29.2
2023-08-12T15:32:58.160Z,29.1
2023-08-12T15:34:12.398Z,29.1
2023-08-12T15:35:26.637Z,29
2023-08-12T15:36:40.876Z,28.9
2023-08-12T15:37:55.115Z,28.8
2023-08-12T15:39:09.354Z,28.8
2023-08-12T15:40:23.593Z,28.7
2023-08-12T15:41:37.831Z,28.6
2023-08-12T15:42:52.070Z,28.6
2023-08-12T15:44:06.309Z,28.6
2023-08-12T15:45:20.547Z,28.5
2023-08-12T15:46:34.786Z,28.5
2023-08-12T15:47:49.025Z,28.4
2023-08-12T15:49:02.280Z,28.4
2023-08-12T15:50:16.519Z,28.4
2023-08-12T15:51:30.757Z,28.3
2023-08-12T15:52:44.996Z,28.2
2023-08-12T15:53:59.235Z,28.2
2023-08-12T15:55:13.474Z,28.1
2023-08-12T15:56:27.712Z,28
2023-08-12T15:57:41.951Z,27.9
2023-08-12T15:58:56.190Z,27.7
2023-08-12T16:00:10.429Z,27.4
2023-08-12T16:01:24.668Z,27.1
2023-08-12T16:02:38.907Z,26.8
2023-08-12T16:03:53.146Z,26.5
2023-08-12T16:05:06.401Z,26.2
2023-08-12T16:06:20.640Z,25.9
2023-08-12T16:07:34.879Z,25.4
2023-08-12T16:08:49.118Z,25.1
2023-08-12T16:10:03.358Z,24.7
2023-08-12T16:11:17.577Z,24.1
2023-08-12T16:12:31.835Z,23.8
2023-08-12T16:13:46.074Z,23.5
2023-08-12T16:15:00.313Z,23.3
2023-08-12T16:16:14.551Z,23
2023-08-12T16:17:28.790Z,22.9
2023-08-12T16:18:43.029Z,22.8
2023-08-12T16:19:57.268Z,22.7
2023-08-12T16:21:10.523Z,22.6
2023-08-12T16:22:24.761Z,22.6
2023-08-12T16:23:39.000Z,22.5
2023-08-12T16:24:53.238Z,22.5
2023-08-12T16:26:07.477Z,22.4
2023-08-12T16:27:21.715Z,22.4
2023-08-12T16:28:35.954Z,22.4
2023-08-12T16:29:50.192Z,22.4
2023-08-12T16:31:04.431Z,22.4
2023-08-12T16:32:18.670Z,22.4
2023-08-12T16:33:32.909Z,22.4
2023-08-12T16:34:47.147Z,22.3